sensor_id;sensor_type;location;lat;lon;timestamp;pressure;altitude;pressure_sealevel;temperature;humidity
61682;BME280;47577;43.610;25.010;2022-11-04T00:01:58;100621.03;;;7.54;75.15
61682;BME280;47577;43.610;25.010;2022-11-04T00:04:26;100623.59;;;7.59;73.86
61682;BME280;47577;43.610;25.010;2022-11-04T00:06:53;100602.59;;;7.49;73.83
61682;BME280;47577;43.610;25.010;2022-11-04T00:09:30;100619.28;;;7.53;74.35
61682;BME280;47577;43.610;25.010;2022-11-04T00:11:56;100608.88;;;7.44;74.90
61682;BME280;47577;43.610;25.010;2022-11-04T00:14:40;100613.22;;;7.46;72.71
61682;BME280;47577;43.610;25.010;2022-11-04T00:17:10;100614.97;;;7.47;74.41
61682;BME280;47577;43.610;25.010;2022-11-04T00:19:51;100612.38;;;7.44;75.15
61682;BME280;47577;43.610;25.010;2022-11-04T00:22:36;100612.41;;;7.43;74.76
61682;BME280;47577;43.610;25.010;2022-11-04T00:25:28;100609.81;;;7.40;74.76
61682;BME280;47577;43.610;25.010;2022-11-04T00:28:14;100604.56;;;7.38;73.54
61682;BME280;47577;43.610;25.010;2022-11-04T00:30:59;100605.72;;;7.22;74.70
61682;BME280;47577;43.610;25.010;2022-11-04T00:33:48;100613.47;;;7.34;75.09
61682;BME280;47577;43.610;25.010;2022-11-04T00:36:13;100609.19;;;7.24;75.02
61682;BME280;47577;43.610;25.010;2022-11-04T00:38:40;100612.97;;;7.10;75.24
61682;BME280;47577;43.610;25.010;2022-11-04T00:41:06;100617.31;;;7.14;74.87
61682;BME280;47577;43.610;25.010;2022-11-04T00:44:01;100613.91;;;7.08;76.56
61682;BME280;47577;43.610;25.010;2022-11-04T00:46:30;100614.72;;;7.11;75.91
61682;BME280;47577;43.610;25.010;2022-11-04T00:48:59;100604.09;;;7.13;75.86
61682;BME280;47577;43.610;25.010;2022-11-04T00:51:25;100608.59;;;7.08;75.33
61682;BME280;47577;43.610;25.010;2022-11-04T00:53:51;100596.75;;;6.76;77.21
61682;BME280;47577;43.610;25.010;2022-11-04T00:56:17;100593.16;;;6.78;78.18
61682;BME280;47577;43.610;25.010;2022-11-04T00:58:43;100598.25;;;6.92;75.99
61682;BME280;47577;43.610;25.010;2022-11-04T01:01:11;100594.69;;;6.97;74.17
61682;BME280;47577;43.610;25.010;2022-11-04T01:03:37;100591.88;;;7.06;75.77
61682;BME280;47577;43.610;25.010;2022-11-04T01:06:03;100584.28;;;6.84;77.67
61682;BME280;47577;43.610;25.010;2022-11-04T01:08:29;100581.56;;;6.90;76.35
61682;BME280;47577;43.610;25.010;2022-11-04T01:10:54;100575.34;;;6.91;75.68
61682;BME280;47577;43.610;25.010;2022-11-04T01:13:20;100577.03;;;6.99;75.72
61682;BME280;47577;43.610;25.010;2022-11-04T01:15:46;100566.41;;;7.00;75.53
61682;BME280;47577;43.610;25.010;2022-11-04T01:18:12;100567.28;;;7.01;74.67
61682;BME280;47577;43.610;25.010;2022-11-04T01:20:37;100564.56;;;7.05;75.67
61682;BME280;47577;43.610;25.010;2022-11-04T01:23:03;100557.44;;;7.09;74.05
61682;BME280;47577;43.610;25.010;2022-11-04T01:25:29;100555.78;;;7.05;73.98
61682;BME280;47577;43.610;25.010;2022-11-04T01:27:55;100546.91;;;7.06;75.16
61682;BME280;47577;43.610;25.010;2022-11-04T01:30:20;100552.91;;;7.17;74.47
61682;BME280;47577;43.610;25.010;2022-11-04T01:32:46;100536.13;;;7.20;76.62
61682;BME280;47577;43.610;25.010;2022-11-04T01:35:12;100541.47;;;7.15;76.29
61682;BME280;47577;43.610;25.010;2022-11-04T01:37:37;100540.75;;;7.07;75.57
61682;BME280;47577;43.610;25.010;2022-11-04T01:40:03;100547.00;;;7.01;76.79
61682;BME280;47577;43.610;25.010;2022-11-04T01:42:29;100528.47;;;7.03;76.30
61682;BME280;47577;43.610;25.010;2022-11-04T01:44:59;100538.88;;;7.12;74.04
61682;BME280;47577;43.610;25.010;2022-11-04T01:47:48;100540.78;;;7.05;76.68
61682;BME280;47577;43.610;25.010;2022-11-04T01:50:20;100527.69;;;6.96;77.89
61682;BME280;47577;43.610;25.010;2022-11-04T01:52:51;100535.97;;;6.76;80.35
61682;BME280;47577;43.610;25.010;2022-11-04T01:55:22;100538.19;;;7.02;77.37
61682;BME280;47577;43.610;25.010;2022-11-04T01:57:51;100537.25;;;7.06;74.44
61682;BME280;47577;43.610;25.010;2022-11-04T02:00:20;100539.03;;;7.03;75.91
61682;BME280;47577;43.610;25.010;2022-11-04T02:03:14;100543.47;;;7.02;76.60
61682;BME280;47577;43.610;25.010;2022-11-04T02:05:41;100539.03;;;7.03;74.64
61682;BME280;47577;43.610;25.010;2022-11-04T02:08:08;100532.97;;;6.98;75.64
61682;BME280;47577;43.610;25.010;2022-11-04T02:10:35;100534.75;;;6.97;76.10
61682;BME280;47577;43.610;25.010;2022-11-04T02:13:03;100528.66;;;6.92;76.32
61682;BME280;47577;43.610;25.010;2022-11-04T02:24:27;100514.59;;;6.88;77.05
61682;BME280;47577;43.610;25.010;2022-11-04T02:30:05;100518.13;;;6.90;76.77
61682;BME280;47577;43.610;25.010;2022-11-04T02:38:17;100515.34;;;6.98;77.53
61682;BME280;47577;43.610;25.010;2022-11-04T02:44:06;100505.84;;;6.86;77.54
61682;BME280;47577;43.610;25.010;2022-11-04T02:48:58;100494.41;;;6.86;78.57
61682;BME280;47577;43.610;25.010;2022-11-04T02:51:35;100496.09;;;6.88;76.47
61682;BME280;47577;43.610;25.010;2022-11-04T02:56:36;100487.22;;;6.94;77.00
61682;BME280;47577;43.610;25.010;2022-11-04T02:59:07;100480.19;;;6.91;76.33
61682;BME280;47577;43.610;25.010;2022-11-04T03:01:39;100473.78;;;6.55;78.80
61682;BME280;47577;43.610;25.010;2022-11-04T03:04:35;100483.22;;;6.70;78.48
61682;BME280;47577;43.610;25.010;2022-11-04T03:07:04;100487.59;;;6.72;76.53
61682;BME280;47577;43.610;25.010;2022-11-04T03:09:34;100487.72;;;6.63;77.16
61682;BME280;47577;43.610;25.010;2022-11-04T03:12:05;100485.00;;;6.68;77.86
61682;BME280;47577;43.610;25.010;2022-11-04T03:14:41;100474.50;;;6.63;76.05
61682;BME280;47577;43.610;25.010;2022-11-04T03:17:21;100492.81;;;6.75;77.58
61682;BME280;47577;43.610;25.010;2022-11-04T03:19:58;100491.81;;;6.83;78.56
61682;BME280;47577;43.610;25.010;2022-11-04T03:22:29;100485.91;;;6.67;76.40
61682;BME280;47577;43.610;25.010;2022-11-04T03:24:59;100492.03;;;6.69;78.09
61682;BME280;47577;43.610;25.010;2022-11-04T03:27:41;100481.44;;;6.69;79.06
61682;BME280;47577;43.610;25.010;2022-11-04T03:30:14;100488.59;;;6.62;79.29
61682;BME280;47577;43.610;25.010;2022-11-04T03:35:12;100481.03;;;6.40;80.24
61682;BME280;47577;43.610;25.010;2022-11-04T03:37:38;100497.47;;;6.61;77.46
61682;BME280;47577;43.610;25.010;2022-11-04T03:40:06;100498.44;;;6.54;78.32
61682;BME280;47577;43.610;25.010;2022-11-04T03:42:37;100488.97;;;6.40;79.71
61682;BME280;47577;43.610;25.010;2022-11-04T03:45:05;100496.03;;;6.40;80.35
61682;BME280;47577;43.610;25.010;2022-11-04T03:47:31;100487.19;;;6.39;80.31
61682;BME280;47577;43.610;25.010;2022-11-04T03:50:04;100480.72;;;6.59;79.13
61682;BME280;47577;43.610;25.010;2022-11-04T03:52:31;100485.19;;;6.55;78.00
61682;BME280;47577;43.610;25.010;2022-11-04T03:54:57;100487.06;;;6.49;79.25
61682;BME280;47577;43.610;25.010;2022-11-04T04:00:13;100493.88;;;6.64;77.47
61682;BME280;47577;43.610;25.010;2022-11-04T04:05:35;100479.91;;;6.55;76.55
61682;BME280;47577;43.610;25.010;2022-11-04T04:16:41;100481.06;;;6.37;77.44
61682;BME280;47577;43.610;25.010;2022-11-04T04:19:09;100478.53;;;6.30;76.80
61682;BME280;47577;43.610;25.010;2022-11-04T04:21:41;100481.13;;;6.34;76.96
61682;BME280;47577;43.610;25.010;2022-11-04T04:24:11;100491.75;;;6.30;75.76
61682;BME280;47577;43.610;25.010;2022-11-04T04:26:56;100488.34;;;6.21;76.66
61682;BME280;47577;43.610;25.010;2022-11-04T04:29:43;100494.72;;;6.08;76.79
61682;BME280;47577;43.610;25.010;2022-11-04T04:32:10;100495.53;;;6.12;76.34
61682;BME280;47577;43.610;25.010;2022-11-04T04:34:37;100499.16;;;6.04;76.56
61682;BME280;47577;43.610;25.010;2022-11-04T04:37:07;100484.41;;;5.86;78.17
61682;BME280;47577;43.610;25.010;2022-11-04T04:39:46;100486.06;;;5.97;78.69
61682;BME280;47577;43.610;25.010;2022-11-04T04:42:35;100482.44;;;6.02;76.15
61682;BME280;47577;43.610;25.010;2022-11-04T04:45:24;100472.75;;;6.04;75.89
61682;BME280;47577;43.610;25.010;2022-11-04T04:47:52;100486.91;;;5.97;75.28
61682;BME280;47577;43.610;25.010;2022-11-04T04:50:19;100483.41;;;5.98;77.63
61682;BME280;47577;43.610;25.010;2022-11-04T04:52:52;100483.38;;;6.00;77.76
61682;BME280;47577;43.610;25.010;2022-11-04T04:55:19;100487.81;;;5.99;76.76
61682;BME280;47577;43.610;25.010;2022-11-04T04:57:44;100481.63;;;5.96;77.74
61682;BME280;47577;43.610;25.010;2022-11-04T05:00:16;100487.81;;;5.95;76.81
61682;BME280;47577;43.610;25.010;2022-11-04T05:02:42;100490.47;;;5.93;77.29
61682;BME280;47577;43.610;25.010;2022-11-04T05:05:09;100479.97;;;5.89;77.03
61682;BME280;47577;43.610;25.010;2022-11-04T05:07:34;100480.19;;;5.70;78.64
61682;BME280;47577;43.610;25.010;2022-11-04T05:26:48;100479.56;;;6.77;74.25
61682;BME280;47577;43.610;25.010;2022-11-04T05:29:14;100481.56;;;6.64;73.77
61682;BME280;47577;43.610;25.010;2022-11-04T05:31:40;100486.03;;;6.57;74.01
61682;BME280;47577;43.610;25.010;2022-11-04T05:34:09;100493.16;;;6.52;75.15
61682;BME280;47577;43.610;25.010;2022-11-04T05:36:35;100490.63;;;6.45;75.30
61682;BME280;47577;43.610;25.010;2022-11-04T05:39:01;100499.53;;;6.39;76.26
61682;BME280;47577;43.610;25.010;2022-11-04T05:41:27;100500.41;;;6.39;76.32
61682;BME280;47577;43.610;25.010;2022-11-04T05:43:58;100500.66;;;6.24;78.35
61682;BME280;47577;43.610;25.010;2022-11-04T05:46:24;100504.03;;;6.34;78.77
61682;BME280;47577;43.610;25.010;2022-11-04T05:48:50;100503.91;;;6.43;78.18
61682;BME280;47577;43.610;25.010;2022-11-04T05:51:21;100509.78;;;6.61;78.63
61682;BME280;47577;43.610;25.010;2022-11-04T05:53:48;100506.06;;;6.74;77.97
61682;BME280;47577;43.610;25.010;2022-11-04T05:56:13;100500.59;;;6.83;76.54
61682;BME280;47577;43.610;25.010;2022-11-04T05:58:39;100506.56;;;6.94;76.33
61682;BME280;47577;43.610;25.010;2022-11-04T06:03:55;100507.97;;;7.16;76.69
61682;BME280;47577;43.610;25.010;2022-11-04T06:06:22;100510.41;;;7.28;76.28
61682;BME280;47577;43.610;25.010;2022-11-04T06:08:49;100507.53;;;7.40;75.95
61682;BME280;47577;43.610;25.010;2022-11-04T06:11:16;100512.50;;;7.57;75.94
61682;BME280;47577;43.610;25.010;2022-11-04T06:13:42;100514.00;;;7.69;76.14
61682;BME280;47577;43.610;25.010;2022-11-04T06:16:07;100508.56;;;7.77;76.18
61682;BME280;47577;43.610;25.010;2022-11-04T06:18:33;100516.22;;;7.92;75.69
61682;BME280;47577;43.610;25.010;2022-11-04T06:23:41;100510.25;;;8.23;75.05
61682;BME280;47577;43.610;25.010;2022-11-04T06:26:07;100516.91;;;8.41;75.56
61682;BME280;47577;43.610;25.010;2022-11-04T06:28:33;100515.66;;;8.57;75.15
61682;BME280;47577;43.610;25.010;2022-11-04T06:31:02;100515.47;;;8.67;75.90
61682;BME280;47577;43.610;25.010;2022-11-04T06:33:28;100519.41;;;8.86;75.53
61682;BME280;47577;43.610;25.010;2022-11-04T06:36:02;100519.88;;;9.02;74.91
61682;BME280;47577;43.610;25.010;2022-11-04T06:38:31;100515.94;;;9.19;74.53
61682;BME280;47577;43.610;25.010;2022-11-04T06:40:57;100511.97;;;9.33;75.33
61682;BME280;47577;43.610;25.010;2022-11-04T06:43:23;100515.25;;;9.43;74.48
61682;BME280;47577;43.610;25.010;2022-11-04T06:45:57;100512.28;;;9.56;74.23
61682;BME280;47577;43.610;25.010;2022-11-04T06:48:23;100515.38;;;9.70;74.63
61682;BME280;47577;43.610;25.010;2022-11-04T06:50:49;100513.00;;;9.92;74.53
61682;BME280;47577;43.610;25.010;2022-11-04T06:53:14;100511.84;;;10.01;73.54
61682;BME280;47577;43.610;25.010;2022-11-04T06:55:40;100502.94;;;10.03;74.18
61682;BME280;47577;43.610;25.010;2022-11-04T06:58:06;100511.34;;;10.18;74.04
61682;BME280;47577;43.610;25.010;2022-11-04T07:00:32;100503.09;;;10.27;73.54
61682;BME280;47577;43.610;25.010;2022-11-04T07:02:57;100510.56;;;10.44;73.01
61682;BME280;47577;43.610;25.010;2022-11-04T07:05:23;100489.06;;;10.52;73.75
61682;BME280;47577;43.610;25.010;2022-11-04T07:07:49;100491.16;;;10.69;73.29
61682;BME280;47577;43.610;25.010;2022-11-04T07:10:15;100492.56;;;10.81;71.92
61682;BME280;47577;43.610;25.010;2022-11-04T07:12:42;100488.63;;;10.92;72.14
61682;BME280;47577;43.610;25.010;2022-11-04T07:15:08;100482.75;;;11.08;71.94
61682;BME280;47577;43.610;25.010;2022-11-04T07:17:34;100481.38;;;11.23;71.83
61682;BME280;47577;43.610;25.010;2022-11-04T07:20:00;100468.78;;;11.28;71.49
61682;BME280;47577;43.610;25.010;2022-11-04T07:22:29;100473.03;;;11.57;71.98
61682;BME280;47577;43.610;25.010;2022-11-04T07:24:54;100473.34;;;11.73;71.18
61682;BME280;47577;43.610;25.010;2022-11-04T07:27:20;100473.59;;;11.91;70.97
61682;BME280;47577;43.610;25.010;2022-11-04T07:29:45;100467.22;;;11.95;70.40
61682;BME280;47577;43.610;25.010;2022-11-04T07:32:12;100459.75;;;12.04;70.73
61682;BME280;47577;43.610;25.010;2022-11-04T07:34:38;100461.06;;;12.16;70.10
61682;BME280;47577;43.610;25.010;2022-11-04T07:37:04;100452.59;;;12.29;70.04
61682;BME280;47577;43.610;25.010;2022-11-04T07:39:30;100447.75;;;12.38;69.17
61682;BME280;47577;43.610;25.010;2022-11-04T07:41:56;100446.66;;;12.44;69.62
61682;BME280;47577;43.610;25.010;2022-11-04T07:44:22;100448.72;;;12.58;68.05
61682;BME280;47577;43.610;25.010;2022-11-04T07:46:48;100443.81;;;12.69;68.43
61682;BME280;47577;43.610;25.010;2022-11-04T07:49:14;100444.22;;;12.80;67.46
61682;BME280;47577;43.610;25.010;2022-11-04T07:51:39;100441.78;;;12.96;67.88
61682;BME280;47577;43.610;25.010;2022-11-04T07:54:05;100438.53;;;13.10;66.09
61682;BME280;47577;43.610;25.010;2022-11-04T07:56:31;100436.97;;;13.25;66.35
61682;BME280;47577;43.610;25.010;2022-11-04T07:58:56;100433.56;;;13.42;65.32
61682;BME280;47577;43.610;25.010;2022-11-04T08:01:23;100432.13;;;13.54;64.23
61682;BME280;47577;43.610;25.010;2022-11-04T08:03:49;100429.06;;;13.63;65.18
61682;BME280;47577;43.610;25.010;2022-11-04T08:06:16;100426.03;;;13.71;64.90
61682;BME280;47577;43.610;25.010;2022-11-04T08:08:43;100421.34;;;13.76;63.86
61682;BME280;47577;43.610;25.010;2022-11-04T08:11:16;100417.28;;;13.86;62.36
61682;BME280;47577;43.610;25.010;2022-11-04T08:13:44;100424.50;;;14.03;62.69
61682;BME280;47577;43.610;25.010;2022-11-04T08:16:13;100416.69;;;14.18;61.93
61682;BME280;47577;43.610;25.010;2022-11-04T08:18:39;100412.63;;;14.28;61.83
61682;BME280;47577;43.610;25.010;2022-11-04T08:21:06;100415.56;;;14.41;60.20
61682;BME280;47577;43.610;25.010;2022-11-04T08:23:32;100414.25;;;14.50;60.20
61682;BME280;47577;43.610;25.010;2022-11-04T08:25:58;100398.91;;;14.53;59.65
61682;BME280;47577;43.610;25.010;2022-11-04T08:28:25;100406.78;;;14.56;59.58
61682;BME280;47577;43.610;25.010;2022-11-04T08:30:55;100409.75;;;14.69;60.21
61682;BME280;47577;43.610;25.010;2022-11-04T08:33:23;100404.44;;;14.85;59.75
61682;BME280;47577;43.610;25.010;2022-11-04T08:35:50;100394.31;;;14.92;57.90
61682;BME280;47577;43.610;25.010;2022-11-04T08:38:16;100402.09;;;14.96;58.97
61682;BME280;47577;43.610;25.010;2022-11-04T08:40:42;100399.06;;;15.20;57.81
61682;BME280;47577;43.610;25.010;2022-11-04T08:43:08;100383.47;;;15.28;56.78
61682;BME280;47577;43.610;25.010;2022-11-04T08:45:41;100391.41;;;15.30;57.61
61682;BME280;47577;43.610;25.010;2022-11-04T08:48:07;100397.88;;;15.26;56.46
61682;BME280;47577;43.610;25.010;2022-11-04T08:50:32;100395.47;;;15.37;58.23
61682;BME280;47577;43.610;25.010;2022-11-04T08:52:58;100398.44;;;15.48;56.79
61682;BME280;47577;43.610;25.010;2022-11-04T08:55:27;100396.13;;;15.58;56.14
61682;BME280;47577;43.610;25.010;2022-11-04T08:57:53;100395.22;;;15.75;56.35
61682;BME280;47577;43.610;25.010;2022-11-04T09:00:19;100391.00;;;15.87;55.20
61682;BME280;47577;43.610;25.010;2022-11-04T09:02:45;100379.44;;;16.02;55.50
61682;BME280;47577;43.610;25.010;2022-11-04T09:05:12;100381.84;;;16.07;54.50
61682;BME280;47577;43.610;25.010;2022-11-04T09:07:39;100379.44;;;16.18;53.87
61682;BME280;47577;43.610;25.010;2022-11-04T09:10:05;100372.75;;;16.25;53.95
61682;BME280;47577;43.610;25.010;2022-11-04T09:12:31;100368.56;;;16.36;53.48
61682;BME280;47577;43.610;25.010;2022-11-04T09:14:57;100362.66;;;16.45;53.33
61682;BME280;47577;43.610;25.010;2022-11-04T09:17:23;100361.59;;;16.63;52.97
61682;BME280;47577;43.610;25.010;2022-11-04T09:19:49;100354.97;;;16.69;52.65
61682;BME280;47577;43.610;25.010;2022-11-04T09:22:15;100358.31;;;16.73;51.52
61682;BME280;47577;43.610;25.010;2022-11-04T09:24:41;100350.75;;;16.79;51.86
61682;BME280;47577;43.610;25.010;2022-11-04T09:27:06;100352.94;;;16.89;51.77
61682;BME280;47577;43.610;25.010;2022-11-04T09:29:32;100353.72;;;17.05;51.16
61682;BME280;47577;43.610;25.010;2022-11-04T09:32:02;100351.03;;;17.05;51.69
61682;BME280;47577;43.610;25.010;2022-11-04T09:34:28;100340.75;;;17.12;51.84
61682;BME280;47577;43.610;25.010;2022-11-04T09:36:54;100347.50;;;17.19;51.43
61682;BME280;47577;43.610;25.010;2022-11-04T09:39:21;100335.88;;;17.33;50.59
61682;BME280;47577;43.610;25.010;2022-11-04T09:44:53;100326.19;;;17.59;50.54
61682;BME280;47577;43.610;25.010;2022-11-04T09:47:23;100321.16;;;17.67;50.31
61682;BME280;47577;43.610;25.010;2022-11-04T09:49:54;100320.53;;;17.77;49.98
61682;BME280;47577;43.610;25.010;2022-11-04T09:52:38;100315.84;;;17.80;49.57
61682;BME280;47577;43.610;25.010;2022-11-04T09:56:02;100311.81;;;17.87;48.67
61682;BME280;47577;43.610;25.010;2022-11-04T09:58:01;100308.97;;;18.03;48.20
61682;BME280;47577;43.610;25.010;2022-11-04T10:00:30;100302.47;;;18.20;48.15
61682;BME280;47577;43.610;25.010;2022-11-04T10:03:14;100298.44;;;18.40;48.05
61682;BME280;47577;43.610;25.010;2022-11-04T10:20:14;100272.28;;;18.55;46.30
61682;BME280;47577;43.610;25.010;2022-11-04T10:22:58;100265.06;;;18.56;45.84
61682;BME280;47577;43.610;25.010;2022-11-04T10:25:52;100256.25;;;18.54;46.29
61682;BME280;47577;43.610;25.010;2022-11-04T10:28:29;100253.88;;;18.49;46.43
61682;BME280;47577;43.610;25.010;2022-11-04T10:30:55;100255.16;;;18.43;47.13
61682;BME280;47577;43.610;25.010;2022-11-04T10:33:34;100246.31;;;18.41;46.00
61682;BME280;47577;43.610;25.010;2022-11-04T10:36:08;100242.88;;;18.39;46.78
61682;BME280;47577;43.610;25.010;2022-11-04T10:38:38;100239.22;;;18.40;45.91
61682;BME280;47577;43.610;25.010;2022-11-04T10:41:19;100235.13;;;18.48;46.07
61682;BME280;47577;43.610;25.010;2022-11-04T10:43:47;100230.06;;;18.43;46.49
61682;BME280;47577;43.610;25.010;2022-11-04T10:49:24;100226.50;;;18.42;47.44
61682;BME280;47577;43.610;25.010;2022-11-04T10:51:54;100219.94;;;18.34;47.92
61682;BME280;47577;43.610;25.010;2022-11-04T10:54:21;100206.38;;;18.35;46.66
61682;BME280;47577;43.610;25.010;2022-11-04T10:56:51;100211.09;;;18.44;47.20
61682;BME280;47577;43.610;25.010;2022-11-04T10:59:28;100207.03;;;18.52;47.03
61682;BME280;47577;43.610;25.010;2022-11-04T11:01:59;100211.88;;;18.47;46.46
61682;BME280;47577;43.610;25.010;2022-11-04T11:04:29;100208.63;;;18.54;45.56
61682;BME280;47577;43.610;25.010;2022-11-04T11:06:57;100204.56;;;18.61;47.21
61682;BME280;47577;43.610;25.010;2022-11-04T11:09:26;100204.13;;;18.68;46.88
61682;BME280;47577;43.610;25.010;2022-11-04T11:12:05;100202.59;;;18.76;45.01
61682;BME280;47577;43.610;25.010;2022-11-04T11:14:42;100186.25;;;18.92;45.74
61682;BME280;47577;43.610;25.010;2022-11-04T11:17:20;100189.22;;;19.13;45.13
61682;BME280;47577;43.610;25.010;2022-11-04T11:19:58;100179.84;;;19.06;45.15
61682;BME280;47577;43.610;25.010;2022-11-04T11:22:34;100173.03;;;19.13;44.93
61682;BME280;47577;43.610;25.010;2022-11-04T11:27:53;100171.56;;;19.33;45.23
61682;BME280;47577;43.610;25.010;2022-11-04T11:32:56;100166.69;;;19.39;43.84
61682;BME280;47577;43.610;25.010;2022-11-04T11:35:32;100167.09;;;19.45;43.88
61682;BME280;47577;43.610;25.010;2022-11-04T11:38:00;100158.09;;;19.58;44.27
61682;BME280;47577;43.610;25.010;2022-11-04T11:40:35;100146.63;;;19.67;43.45
61682;BME280;47577;43.610;25.010;2022-11-04T11:43:03;100138.25;;;19.83;43.41
61682;BME280;47577;43.610;25.010;2022-11-04T11:45:30;100142.56;;;19.97;43.88
61682;BME280;47577;43.610;25.010;2022-11-04T11:47:56;100138.03;;;19.86;43.55
61682;BME280;47577;43.610;25.010;2022-11-04T11:50:29;100135.44;;;19.84;44.31
61682;BME280;47577;43.610;25.010;2022-11-04T11:53:17;100129.66;;;19.89;43.66
61682;BME280;47577;43.610;25.010;2022-11-04T12:01:27;100133.69;;;20.30;42.82
61682;BME280;47577;43.610;25.010;2022-11-04T12:03:54;100133.19;;;20.25;42.77
61682;BME280;47577;43.610;25.010;2022-11-04T12:06:25;100129.25;;;20.18;43.10
61682;BME280;47577;43.610;25.010;2022-11-04T12:12:13;100116.56;;;19.84;43.87
61682;BME280;47577;43.610;25.010;2022-11-04T12:20:27;100107.47;;;19.85;43.60
61682;BME280;47577;43.610;25.010;2022-11-04T12:26:01;100108.72;;;19.93;44.13
61682;BME280;47577;43.610;25.010;2022-11-04T12:32:07;100100.53;;;20.05;43.74
61682;BME280;47577;43.610;25.010;2022-11-04T12:34:30;100096.13;;;20.16;42.80
61682;BME280;47577;43.610;25.010;2022-11-04T12:37:39;100085.81;;;20.21;42.61
61682;BME280;47577;43.610;25.010;2022-11-04T12:48:00;100090.13;;;20.80;41.70
61682;BME280;47577;43.610;25.010;2022-11-04T12:55:43;100083.00;;;20.90;41.53
61682;BME280;47577;43.610;25.010;2022-11-04T13:01:10;100080.97;;;21.04;40.53
61682;BME280;47577;43.610;25.010;2022-11-04T13:04:00;100084.38;;;21.17;40.95
61682;BME280;47577;43.610;25.010;2022-11-04T13:06:52;100074.59;;;21.05;41.07
61682;BME280;47577;43.610;25.010;2022-11-04T13:09:33;100078.78;;;20.97;40.83
61682;BME280;47577;43.610;25.010;2022-11-04T13:14:53;100072.56;;;20.86;41.33
61682;BME280;47577;43.610;25.010;2022-11-04T13:17:42;100067.03;;;20.76;41.56
61682;BME280;47577;43.610;25.010;2022-11-04T13:22:41;100065.09;;;20.67;41.52
61682;BME280;47577;43.610;25.010;2022-11-04T13:27:43;100071.72;;;20.62;42.33
61682;BME280;47577;43.610;25.010;2022-11-04T13:32:51;100066.94;;;20.43;42.62
61682;BME280;47577;43.610;25.010;2022-11-04T13:35:27;100066.19;;;20.41;43.16
61682;BME280;47577;43.610;25.010;2022-11-04T13:38:18;100057.09;;;20.31;43.47
61682;BME280;47577;43.610;25.010;2022-11-04T13:43:58;100057.50;;;20.26;43.74
61682;BME280;47577;43.610;25.010;2022-11-04T13:46:30;100047.53;;;20.27;43.33
61682;BME280;47577;43.610;25.010;2022-11-04T13:49:19;100043.34;;;20.12;44.11
61682;BME280;47577;43.610;25.010;2022-11-04T13:52:04;100046.94;;;20.01;43.70
61682;BME280;47577;43.610;25.010;2022-11-04T13:57:26;100035.75;;;19.83;44.05
61682;BME280;47577;43.610;25.010;2022-11-04T14:02:43;100031.03;;;19.73;43.91
61682;BME280;47577;43.610;25.010;2022-11-04T14:16:03;100036.50;;;19.61;46.37
61682;BME280;47577;43.610;25.010;2022-11-04T14:18:33;100029.91;;;19.53;45.62
61682;BME280;47577;43.610;25.010;2022-11-04T14:21:14;100035.75;;;19.47;45.38
61682;BME280;47577;43.610;25.010;2022-11-04T14:23:42;100029.59;;;19.45;45.82
61682;BME280;47577;43.610;25.010;2022-11-04T14:26:11;100025.56;;;19.40;45.43
61682;BME280;47577;43.610;25.010;2022-11-04T14:28:42;100019.53;;;19.36;45.89
61682;BME280;47577;43.610;25.010;2022-11-04T14:31:10;100019.88;;;19.31;46.32
61682;BME280;47577;43.610;25.010;2022-11-04T14:34:02;100014.06;;;19.13;47.41
61682;BME280;47577;43.610;25.010;2022-11-04T14:36:37;100014.81;;;18.91;48.65
61682;BME280;47577;43.610;25.010;2022-11-04T14:41:55;100020.13;;;18.43;47.58
61682;BME280;47577;43.610;25.010;2022-11-04T14:44:46;100020.72;;;18.22;48.00
61682;BME280;47577;43.610;25.010;2022-11-04T14:47:20;100008.63;;;18.28;49.25
61682;BME280;47577;43.610;25.010;2022-11-04T14:50:01;100006.16;;;18.25;49.09
61682;BME280;47577;43.610;25.010;2022-11-04T14:52:32;100003.91;;;18.19;48.80
61682;BME280;47577;43.610;25.010;2022-11-04T14:57:45;99999.19;;;17.84;49.63
61682;BME280;47577;43.610;25.010;2022-11-04T15:00:36;100000.47;;;17.65;50.15
61682;BME280;47577;43.610;25.010;2022-11-04T15:05:37;99991.81;;;17.22;50.78
61682;BME280;47577;43.610;25.010;2022-11-04T15:08:25;99999.09;;;17.07;50.37
61682;BME280;47577;43.610;25.010;2022-11-04T15:10:57;99985.66;;;16.79;51.19
61682;BME280;47577;43.610;25.010;2022-11-04T15:13:23;99995.13;;;16.58;52.03
61682;BME280;47577;43.610;25.010;2022-11-04T15:15:49;99978.88;;;16.32;53.00
61682;BME280;47577;43.610;25.010;2022-11-04T15:18:21;99984.97;;;16.21;51.75
61682;BME280;47577;43.610;25.010;2022-11-04T15:20:51;99990.72;;;16.01;52.13
61682;BME280;47577;43.610;25.010;2022-11-04T15:23:34;99999.31;;;15.77;53.03
61682;BME280;47577;43.610;25.010;2022-11-04T15:26:02;99990.84;;;15.54;52.90
61682;BME280;47577;43.610;25.010;2022-11-04T15:28:32;99991.00;;;15.37;53.99
61682;BME280;47577;43.610;25.010;2022-11-04T15:31:05;99981.50;;;15.17;54.64
61682;BME280;47577;43.610;25.010;2022-11-04T15:33:37;99993.97;;;15.02;53.90
61682;BME280;47577;43.610;25.010;2022-11-04T15:36:03;99991.31;;;14.86;54.00
61682;BME280;47577;43.610;25.010;2022-11-04T15:38:31;99988.66;;;14.70;56.03
61682;BME280;47577;43.610;25.010;2022-11-04T15:40:57;99992.81;;;14.60;54.94
61682;BME280;47577;43.610;25.010;2022-11-04T15:43:44;99994.63;;;14.43;56.11
61682;BME280;47577;43.610;25.010;2022-11-04T15:46:20;99987.09;;;14.34;56.40
61682;BME280;47577;43.610;25.010;2022-11-04T15:49:04;99984.00;;;14.26;56.51
61682;BME280;47577;43.610;25.010;2022-11-04T15:51:37;99983.81;;;14.13;57.74